Time;durP1;ratioP1;P1;durP2;ratioP2;P2;SDS_P1;SDS_P2;PMS_P1;PMS_P2;Temp;Humidity;BMP_temperature;BMP_pressure;BME280_temperature;BME280_humidity;BME280_pressure;Samples;Min_cycle;Max_cycle;Signal;HPM_P1;HPM_P2
2021/12/02 00:01:56;;;;;;;2.77;2.02;;;6.40;83.30;;;;;;1891446;75;21090;-42
2021/12/02 00:04:27;;;;;;;4.33;2.22;;;6.40;83.30;;;;;;1891324;76;21082;-42
2021/12/02 00:06:56;;;;;;;4.20;2.05;;;6.40;83.60;;;;;;1891479;76;21032;-43
2021/12/02 00:09:26;;;;;;;2.72;2.17;;;6.40;83.80;;;;;;1891385;76;21016;-42
2021/12/02 00:11:55;;;;;;;3.08;2.37;;;6.50;84.10;;;;;;1891432;76;21032;-42
2021/12/02 00:14:26;;;;;;;4.50;2.12;;;6.50;83.40;;;;;;1891352;76;21071;-43
2021/12/02 00:22:16;;;;;;;4.12;2.58;;;6.50;84.20;;;;;;1891747;76;21040;-43
2021/12/02 00:24:48;;;;;;;3.98;2.02;;;6.50;84.40;;;;;;1891465;75;21098;-43
2021/12/02 00:27:18;;;;;;;3.08;1.95;;;6.50;83.30;;;;;;1891598;76;21462;-42
2021/12/02 00:29:48;;;;;;;3.00;2.37;;;6.50;83.30;;;;;;1891466;76;21455;-43
2021/12/02 00:32:19;;;;;;;2.58;2.10;;;6.40;83.30;;;;;;1891756;76;21023;-42
2021/12/02 00:34:48;;;;;;;4.17;2.47;;;6.30;83.50;;;;;;1891509;76;21036;-43
2021/12/02 00:37:18;;;;;;;4.60;2.75;;;6.20;84.20;;;;;;1891507;75;21008;-42
2021/12/02 00:39:48;;;;;;;4.87;2.60;;;6.20;84.50;;;;;;1891483;76;21028;-42
2021/12/02 00:42:18;;;;;;;3.52;2.65;;;6.30;84.70;;;;;;1891592;76;21012;-43
2021/12/02 00:44:48;;;;;;;3.60;2.45;;;6.30;84.70;;;;;;1891603;76;21105;-42
2021/12/02 00:47:18;;;;;;;4.42;2.77;;;6.40;84.70;;;;;;1891573;76;21173;-43
2021/12/02 00:49:48;;;;;;;4.15;2.40;;;6.40;84.70;;;;;;1891482;76;21089;-43
2021/12/02 00:52:18;;;;;;;5.58;2.60;;;6.40;82.50;;;;;;1891482;74;21016;-42
2021/12/02 00:54:48;;;;;;;4.83;2.50;;;6.40;82.80;;;;;;1891549;76;21028;-44
2021/12/02 00:57:18;;;;;;;4.42;2.83;;;6.30;83.30;;;;;;1891483;76;21098;-42
2021/12/02 00:59:49;;;;;;;4.28;2.70;;;6.30;83.80;;;;;;1891564;76;21101;-42
2021/12/02 01:02:20;;;;;;;4.08;2.70;;;6.30;84.20;;;;;;1891500;76;21044;-42
2021/12/02 01:04:50;;;;;;;2.83;2.30;;;6.40;84.20;;;;;;1891478;76;21040;-43
2021/12/02 01:07:19;;;;;;;4.40;2.40;;;6.40;84.20;;;;;;1891560;76;21044;-42
2021/12/02 01:09:49;;;;;;;2.95;2.62;;;6.50;83.90;;;;;;1891594;76;21094;-43
2021/12/02 01:12:19;;;;;;;6.42;2.25;;;6.40;83.70;;;;;;1891290;75;21028;-42
2021/12/02 01:14:48;;;;;;;4.53;2.55;;;6.40;83.70;;;;;;1891542;76;21078;-42
2021/12/02 01:17:18;;;;;;;4.90;2.17;;;6.30;84.10;;;;;;1891464;76;21048;-43
2021/12/02 01:19:47;;;;;;;4.22;2.87;;;6.30;84.00;;;;;;1891561;76;21067;-43
2021/12/02 01:22:17;;;;;;;4.42;2.30;;;6.30;84.50;;;;;;1891502;76;21090;-43
2021/12/02 01:24:49;;;;;;;3.58;2.27;;;6.30;84.40;;;;;;1891430;76;21036;-42
2021/12/02 01:27:25;;;;;;;5.42;2.30;;;6.30;83.00;;;;;;1891645;76;21110;-43
2021/12/02 01:29:53;;;;;;;6.28;3.05;;;6.10;83.30;;;;;;1890728;75;21032;-42
2021/12/02 01:32:23;;;;;;;5.25;2.90;;;6.00;83.80;;;;;;1891473;76;21028;-42
2021/12/02 01:34:55;;;;;;;3.92;2.00;;;5.90;84.40;;;;;;1891573;76;21076;-42
2021/12/02 01:37:25;;;;;;;2.65;2.30;;;5.90;84.10;;;;;;1891619;76;21032;-42
2021/12/02 01:39:57;;;;;;;3.45;2.47;;;5.70;83.30;;;;;;1891509;76;21587;-43
2021/12/02 01:42:28;;;;;;;4.92;2.50;;;5.60;84.00;;;;;;1891622;76;21012;-42
2021/12/02 01:44:59;;;;;;;5.22;2.72;;;5.50;84.30;;;;;;1891555;76;21024;-42
2021/12/02 01:47:31;;;;;;;9.78;2.65;;;5.50;84.60;;;;;;1888933;76;21175;-42
2021/12/02 01:50:04;;;;;;;6.03;2.62;;;5.50;85.10;;;;;;1872897;77;21013;-42
2021/12/02 01:52:32;;;;;;;4.20;2.50;;;5.60;85.50;;;;;;1872554;76;21041;-42
2021/12/02 01:55:07;;;;;;;3.87;2.70;;;5.60;85.30;;;;;;1872883;75;21107;-42
2021/12/02 01:57:39;;;;;;;4.85;2.70;;;5.70;84.80;;;;;;1873031;75;21091;-43
2021/12/02 02:00:20;;;;;;;3.55;2.37;;;5.80;84.60;;;;;;1872896;75;21018;-42
2021/12/02 02:02:50;;;;;;;5.42;2.33;;;5.80;84.10;;;;;;1872984;75;21009;-44
2021/12/02 02:05:19;;;;;;;5.28;2.05;;;5.80;83.60;;;;;;1872761;75;22414;-41
2021/12/02 02:07:57;;;;;;;2.25;2.05;;;5.80;84.00;;;;;;1872828;76;21021;-42
2021/12/02 02:10:28;;;;;;;3.00;2.12;;;5.80;83.70;;;;;;1872707;76;21005;-42
2021/12/02 02:13:00;;;;;;;2.55;2.00;;;5.90;83.50;;;;;;1872875;75;21134;-42
2021/12/02 02:15:28;;;;;;;5.30;2.47;;;5.90;83.60;;;;;;1872910;75;21104;-43
2021/12/02 02:18:18;;;;;;;3.42;2.10;;;5.90;83.50;;;;;;1872886;75;21049;-43
2021/12/02 02:21:02;;;;;;;4.10;2.25;;;5.90;83.70;;;;;;1872221;75;21104;-42
2021/12/02 02:23:38;;;;;;;4.12;2.00;;;5.90;82.70;;;;;;1872880;75;21069;-43
2021/12/02 02:26:07;;;;;;;3.12;2.62;;;5.90;83.30;;;;;;1872933;75;21034;-42
2021/12/02 02:28:38;;;;;;;4.53;2.70;;;5.90;83.30;;;;;;1872868;76;21005;-42
2021/12/02 02:31:07;;;;;;;3.77;2.30;;;6.00;83.50;;;;;;1872779;76;21125;-43
2021/12/02 02:33:37;;;;;;;2.37;2.02;;;6.00;83.80;;;;;;1872973;75;21033;-42
2021/12/02 02:36:09;;;;;;;2.45;2.00;;;6.00;83.30;;;;;;1872784;77;21112;-42
2021/12/02 02:38:38;;;;;;;2.80;1.98;;;6.00;83.30;;;;;;1872884;77;21029;-42
2021/12/02 02:41:10;;;;;;;3.35;1.92;;;6.00;83.20;;;;;;1872681;76;21033;-41
2021/12/02 02:43:39;;;;;;;6.75;2.50;;;6.10;83.30;;;;;;1872856;76;21538;-42
2021/12/02 02:46:10;;;;;;;1.98;1.77;;;6.00;83.00;;;;;;1872795;75;21037;-41
2021/12/02 02:48:39;;;;;;;2.10;1.65;;;6.00;82.50;;;;;;1872821;75;21033;-41
2021/12/02 02:51:08;;;;;;;2.50;2.12;;;6.00;83.00;;;;;;1872612;75;21021;-42
2021/12/02 02:53:37;;;;;;;3.30;2.08;;;6.10;83.10;;;;;;1872796;77;21005;-42
2021/12/02 02:56:18;;;;;;;2.33;1.55;;;6.10;83.00;;;;;;1872830;75;21021;-42
2021/12/02 02:59:09;;;;;;;2.50;1.87;;;6.10;83.00;;;;;;1872001;75;21056;-43
2021/12/02 03:02:02;;;;;;;3.80;2.00;;;6.10;83.10;;;;;;1871880;75;21121;-41
2021/12/02 03:05:16;;;;;;;3.20;2.27;;;6.10;82.80;;;;;;1869048;75;21054;-42
2021/12/02 03:07:00;;;;;;;3.67;2.27;;;6.00;82.60;;;;;;1862805;75;21033;-42
2021/12/02 03:09:46;;;;;;;2.77;2.30;;;6.00;82.60;;;;;;1872496;76;21045;-41
2021/12/02 03:12:08;;;;;;;4.37;2.25;;;6.00;82.10;;;;;;1869387;75;21056;-42
2021/12/02 03:14:49;;;;;;;;;;;6.00;82.10;;;;;;1874893;75;21033;-41
2021/12/02 03:17:06;;;;;;;3.35;1.90;;;6.00;81.30;;;;;;1870381;75;20125;-42
2021/12/02 03:19:38;;;;;;;2.62;1.70;;;5.90;81.60;;;;;;1872824;75;21033;-42
2021/12/02 03:22:08;;;;;;;2.50;2.00;;;5.90;82.00;;;;;;1872839;76;21103;-43
2021/12/02 03:24:37;;;;;;;3.47;1.90;;;5.90;81.80;;;;;;1872782;75;21029;-41
2021/12/02 03:27:07;;;;;;;3.02;1.57;;;6.00;81.60;;;;;;1872844;75;21088;-41
2021/12/02 03:29:36;;;;;;;5.97;3.00;;;5.90;81.00;;;;;;1872761;75;21115;-42
2021/12/02 03:32:08;;;;;;;3.05;2.00;;;6.00;81.60;;;;;;1872675;77;21029;-42
2021/12/02 03:34:39;;;;;;;8.65;2.70;;;6.00;81.10;;;;;;1872714;75;21034;-42
2021/12/02 03:37:09;;;;;;;5.55;2.52;;;6.00;81.50;;;;;;1872851;75;21033;-41
2021/12/02 03:39:39;;;;;;;3.77;2.02;;;6.10;81.00;;;;;;1872727;75;21119;-42
2021/12/02 03:42:09;;;;;;;2.98;2.37;;;6.00;81.10;;;;;;1872665;76;21036;-41
2021/12/02 03:44:38;;;;;;;3.22;1.90;;;6.00;80.70;;;;;;1872704;76;21100;-42
2021/12/02 03:47:07;;;;;;;3.08;2.17;;;6.00;80.80;;;;;;1872733;75;21095;-42
2021/12/02 03:49:37;;;;;;;3.33;1.80;;;6.00;80.70;;;;;;1883049;76;21060;-43
2021/12/02 03:52:06;;;;;;;2.20;1.75;;;6.00;80.60;;;;;;1891510;74;21044;-42
2021/12/02 03:54:36;;;;;;;2.35;1.67;;;6.00;80.50;;;;;;1891480;76;21028;-42
2021/12/02 03:57:06;;;;;;;4.50;2.17;;;5.90;80.50;;;;;;1891615;76;21090;-42
2021/12/02 03:59:35;;;;;;;4.62;1.77;;;5.90;80.30;;;;;;1891558;75;21079;-42
2021/12/02 04:02:06;;;;;;;4.22;2.40;;;5.90;80.00;;;;;;1891624;74;21101;-41
2021/12/02 04:04:35;;;;;;;2.50;1.80;;;5.90;80.40;;;;;;1891535;76;21076;-42
2021/12/02 04:07:05;;;;;;;3.12;2.20;;;5.90;80.20;;;;;;1891568;74;21032;-42
2021/12/02 04:09:43;;;;;;;2.60;1.90;;;5.90;80.20;;;;;;1891437;76;21012;-42
2021/12/02 04:12:22;;;;;;;3.45;2.00;;;5.80;79.80;;;;;;1891609;76;21056;-41
2021/12/02 04:14:51;;;;;;;3.05;1.98;;;5.80;79.70;;;;;;1890151;75;21528;-42
2021/12/02 04:17:14;;;;;;;3.27;2.00;;;5.90;79.90;;;;;;1890782;75;21082;-42
2021/12/02 04:19:44;;;;;;;4.05;2.37;;;5.90;80.00;;;;;;1891603;76;21094;-41
2021/12/02 04:22:13;;;;;;;5.37;2.30;;;5.90;78.90;;;;;;1891611;75;21028;-43
2021/12/02 04:24:42;;;;;;;3.33;1.98;;;5.90;79.30;;;;;;1891446;76;21027;-41
2021/12/02 04:27:12;;;;;;;4.55;1.62;;;6.00;79.60;;;;;;1891564;76;21524;-42
2021/12/02 04:29:41;;;;;;;2.80;1.50;;;6.00;79.30;;;;;;1891522;76;21031;-41
2021/12/02 04:32:10;;;;;;;6.92;2.60;;;6.10;79.60;;;;;;1891573;76;21087;-42
2021/12/02 04:34:40;;;;;;;2.37;1.30;;;6.10;79.00;;;;;;1891641;76;21032;-42
2021/12/02 04:37:09;;;;;;;8.58;3.20;;;6.10;79.00;;;;;;1891423;76;21094;-42
2021/12/02 04:39:39;;;;;;;1.80;1.57;;;6.10;78.90;;;;;;1891522;76;21086;-41
2021/12/02 04:42:08;;;;;;;1.80;1.40;;;6.10;78.70;;;;;;1891589;76;21028;-42
2021/12/02 04:44:38;;;;;;;2.92;1.67;;;6.10;79.00;;;;;;1891549;76;21064;-41
2021/12/02 04:47:07;;;;;;;3.85;1.92;;;6.10;78.80;;;;;;1891519;76;21028;-42
2021/12/02 04:49:36;;;;;;;2.87;1.77;;;6.10;79.10;;;;;;1891404;75;21068;-41
2021/12/02 04:52:06;;;;;;;3.83;1.87;;;6.20;78.70;;;;;;1891468;74;21091;-43
2021/12/02 04:54:36;;;;;;;4.50;1.90;;;6.10;78.50;;;;;;1891505;76;21044;-43
2021/12/02 04:57:06;;;;;;;3.67;2.35;;;6.20;78.40;;;;;;1891579;76;21055;-41
2021/12/02 04:59:35;;;;;;;1.65;1.50;;;6.20;78.90;;;;;;1891540;75;21177;-43
2021/12/02 05:02:04;;;;;;;3.62;1.77;;;6.20;77.90;;;;;;1891575;76;21052;-43
2021/12/02 05:04:34;;;;;;;3.20;2.05;;;6.20;78.30;;;;;;1891479;75;21008;-43
2021/12/02 05:07:04;;;;;;;2.47;1.72;;;6.30;78.00;;;;;;1891516;76;21056;-43
2021/12/02 05:09:33;;;;;;;3.02;1.77;;;6.30;78.40;;;;;;1891427;76;21028;-43
2021/12/02 05:12:03;;;;;;;3.60;2.35;;;6.30;77.50;;;;;;1891460;75;21024;-44
2021/12/02 05:14:32;;;;;;;3.08;2.30;;;6.40;77.80;;;;;;1891497;76;21008;-43
2021/12/02 05:17:02;;;;;;;2.75;2.35;;;6.40;77.70;;;;;;1891589;76;21562;-43
2021/12/02 05:19:31;;;;;;;2.12;1.55;;;6.40;76.60;;;;;;1891626;76;21020;-44
2021/12/02 05:22:01;;;;;;;2.98;1.87;;;6.50;77.60;;;;;;1891494;76;21028;-43
2021/12/02 05:24:30;;;;;;;3.65;1.90;;;6.50;77.20;;;;;;1891453;76;21093;-44
2021/12/02 05:27:00;;;;;;;5.50;2.25;;;6.40;76.90;;;;;;1891385;76;21024;-44
2021/12/02 05:29:29;;;;;;;5.90;3.05;;;6.50;77.30;;;;;;1891478;76;21079;-43
2021/12/02 05:31:59;;;;;;;3.55;2.02;;;6.50;77.50;;;;;;1891409;76;21032;-43
2021/12/02 05:34:28;;;;;;;3.45;1.98;;;6.50;77.30;;;;;;1891523;76;21090;-44
2021/12/02 05:36:57;;;;;;;2.30;1.85;;;6.50;76.90;;;;;;1891515;76;21035;-43
2021/12/02 05:39:26;;;;;;;16.02;2.87;;;6.50;77.30;;;;;;1891579;76;21032;-41
2021/12/02 05:41:56;;;;;;;8.10;2.20;;;6.60;78.80;;;;;;1891408;75;21008;-41
2021/12/02 05:44:27;;;;;;;3.95;2.27;;;6.80;80.40;;;;;;1891558;76;21150;-42
2021/12/02 05:46:56;;;;;;;3.95;2.37;;;7.00;78.30;;;;;;1891360;76;21012;-41
2021/12/02 05:49:27;;;;;;;4.62;1.87;;;7.00;77.50;;;;;;1891465;74;21486;-42
2021/12/02 05:51:57;;;;;;;4.30;1.90;;;7.00;77.20;;;;;;1893739;76;21509;-44
2021/12/02 05:54:26;;;;;;;10.20;2.45;;;7.00;77.50;;;;;;1893561;74;21098;-42
2021/12/02 05:56:55;;;;;;;10.53;2.92;;;7.00;76.90;;;;;;1893625;75;21111;-41
2021/12/02 05:59:25;;;;;;;3.72;2.52;;;7.00;77.70;;;;;;1893644;74;21076;-41
2021/12/02 06:01:54;;;;;;;4.75;2.10;;;7.00;77.90;;;;;;1893700;74;21095;-42
2021/12/02 06:04:24;;;;;;;6.50;2.25;;;7.10;77.50;;;;;;1893597;75;21029;-42
2021/12/02 06:06:54;;;;;;;12.15;2.72;;;7.10;77.20;;;;;;1893635;76;21332;-41
2021/12/02 06:09:24;;;;;;;6.95;2.22;;;7.10;78.20;;;;;;1893663;76;21036;-42
2021/12/02 06:11:54;;;;;;;5.30;2.08;;;7.30;78.90;;;;;;1893727;74;21044;-42
2021/12/02 06:14:23;;;;;;;3.87;2.37;;;7.40;78.40;;;;;;1893649;74;21024;-41
2021/12/02 06:16:52;;;;;;;3.62;1.72;;;7.50;77.40;;;;;;1893552;74;21033;-41
2021/12/02 06:19:22;;;;;;;1.77;1.47;;;7.50;77.10;;;;;;1893583;74;21028;-42
2021/12/02 06:21:51;;;;;;;1.92;1.42;;;7.60;77.10;;;;;;1893684;76;21111;-42
2021/12/02 06:24:27;;;;;;;3.77;1.87;;;7.60;76.50;;;;;;1893763;76;21008;-43
2021/12/02 06:26:51;;;;;;;4.60;2.10;;;7.60;77.20;;;;;;1892620;74;21094;-43
2021/12/02 06:29:20;;;;;;;4.50;1.70;;;7.60;76.90;;;;;;1893726;75;21090;-43
2021/12/02 06:31:50;;;;;;;3.08;1.57;;;7.70;76.90;;;;;;1893633;74;21021;-42
2021/12/02 06:34:19;;;;;;;3.87;2.05;;;7.60;75.30;;;;;;1893685;76;21134;-42
2021/12/02 06:36:49;;;;;;;2.45;1.62;;;7.60;74.70;;;;;;1893590;74;21107;-43
2021/12/02 06:39:18;;;;;;;2.90;1.80;;;7.70;75.60;;;;;;1893716;76;21103;-43
2021/12/02 06:41:47;;;;;;;5.05;1.80;;;7.70;75.20;;;;;;1893689;74;21095;-42
2021/12/02 06:44:17;;;;;;;3.22;1.60;;;7.70;75.70;;;;;;1893572;75;21025;-42
2021/12/02 06:46:46;;;;;;;1.50;1.40;;;7.70;75.50;;;;;;1893558;75;21099;-44
2021/12/02 06:49:16;;;;;;;3.37;1.92;;;7.80;75.50;;;;;;1893641;75;21088;-42
2021/12/02 06:51:45;;;;;;;3.30;2.17;;;7.80;75.10;;;;;;1892069;76;21088;-42
2021/12/02 06:54:15;;;;;;;3.60;1.62;;;7.80;74.90;;;;;;1891557;76;21130;-42
2021/12/02 06:56:44;;;;;;;12.13;2.25;;;7.90;73.60;;;;;;1891491;76;21039;-43
2021/12/02 06:59:14;;;;;;;4.22;2.95;;;7.90;75.60;;;;;;1891570;76;21028;-43
2021/12/02 07:01:43;;;;;;;9.73;3.33;;;8.00;75.80;;;;;;1891432;76;21075;-43
2021/12/02 07:04:14;;;;;;;5.62;2.95;;;8.00;76.00;;;;;;1891493;75;21462;-44
2021/12/02 07:06:44;;;;;;;5.33;2.80;;;8.10;76.50;;;;;;1891479;76;21036;-43
2021/12/02 07:09:14;;;;;;;3.22;1.77;;;8.20;76.70;;;;;;1891504;76;21075;-42
2021/12/02 07:11:43;;;;;;;3.02;1.90;;;8.20;75.90;;;;;;1891424;76;21086;-43
2021/12/02 07:14:16;;;;;;;4.25;2.20;;;8.30;76.30;;;;;;1891444;76;21095;-42
2021/12/02 07:16:44;;;;;;;2.08;1.85;;;8.30;75.90;;;;;;1891380;75;21028;-45
2021/12/02 07:19:14;;;;;;;2.72;1.90;;;8.30;76.60;;;;;;1891486;76;21068;-44
2021/12/02 07:21:43;;;;;;;2.27;2.08;;;8.40;75.60;;;;;;1896760;74;21161;-43
2021/12/02 07:24:15;;;;;;;4.15;1.75;;;8.40;76.00;;;;;;1908536;74;21032;-43
2021/12/02 07:26:46;;;;;;;16.42;5.10;;;8.50;78.00;;;;;;1910457;74;21105;-44
2021/12/02 07:29:17;;;;;;;4.85;2.15;;;8.70;77.60;;;;;;1906855;74;21038;-44
2021/12/02 07:31:46;;;;;;;8.33;2.42;;;8.70;76.60;;;;;;1909860;74;21072;-45
2021/12/02 07:34:16;;;;;;;5.72;2.08;;;8.80;76.60;;;;;;1905636;74;21059;-41
2021/12/02 07:36:46;;;;;;;5.12;2.33;;;8.80;75.70;;;;;;1908832;74;21127;-42
2021/12/02 07:39:16;;;;;;;11.05;3.58;;;8.90;77.50;;;;;;1908094;74;21069;-40
2021/12/02 07:41:47;;;;;;;4.05;1.72;;;9.00;77.20;;;;;;1904505;74;21136;-41
2021/12/02 07:44:19;;;;;;;5.12;2.40;;;9.20;76.40;;;;;;1892742;74;21022;-43
2021/12/02 07:46:48;;;;;;;3.35;1.77;;;9.20;76.50;;;;;;1916082;74;21169;-40
2021/12/02 07:49:18;;;;;;;3.00;1.70;;;9.30;73.20;;;;;;1907628;74;21066;-42
2021/12/02 07:51:50;;;;;;;5.83;1.90;;;9.20;73.00;;;;;;1912732;74;21129;-42
2021/12/02 07:54:19;;;;;;;4.67;1.75;;;9.20;72.60;;;;;;1903819;75;21043;-41
2021/12/02 07:56:49;;;;;;;2.90;1.40;;;9.10;72.20;;;;;;1904406;75;21094;-42
2021/12/02 07:59:19;;;;;;;3.47;1.70;;;9.10;73.10;;;;;;1902635;74;21124;-42
2021/12/02 08:01:48;;;;;;;1.90;1.27;;;9.10;73.50;;;;;;1904319;75;21140;-40
2021/12/02 08:04:18;;;;;;;1.92;1.50;;;9.10;72.70;;;;;;1903773;75;21035;-41
2021/12/02 08:06:47;;;;;;;4.70;2.22;;;9.10;72.40;;;;;;1904171;75;21095;-40
2021/12/02 08:09:17;;;;;;;5.55;1.72;;;9.10;72.40;;;;;;1880829;75;21030;-40
2021/12/02 08:12:02;;;;;;;2.40;1.82;;;9.10;72.80;;;;;;1871607;76;21055;-41
2021/12/02 08:14:32;;;;;;;3.05;1.75;;;9.10;73.30;;;;;;1870621;76;21090;-40
2021/12/02 08:17:01;;;;;;;3.70;1.25;;;9.20;72.80;;;;;;1871521;77;21171;-43
2021/12/02 08:19:31;;;;;;;1.95;1.27;;;9.20;72.40;;;;;;1870487;76;21062;-40
2021/12/02 08:22:00;;;;;;;4.65;1.30;;;9.20;72.20;;;;;;1870466;75;21067;-43
2021/12/02 08:24:31;;;;;;;1.65;1.35;;;9.20;72.40;;;;;;1871329;77;21086;-42
2021/12/02 08:27:00;;;;;;;1.20;1.07;;;9.20;72.30;;;;;;1871430;75;21114;-43
2021/12/02 08:29:32;;;;;;;6.15;1.37;;;9.20;70.70;;;;;;1871568;77;21543;-42
2021/12/02 08:32:01;;;;;;;7.28;1.85;;;9.20;71.00;;;;;;1870824;77;21120;-42
2021/12/02 08:34:30;;;;;;;3.58;2.05;;;9.20;71.90;;;;;;1871313;76;21097;-42
2021/12/02 08:37:00;;;;;;;3.80;1.57;;;9.30;72.50;;;;;;1870910;77;21129;-40
2021/12/02 08:39:30;;;;;;;2.25;1.50;;;9.30;71.90;;;;;;1870850;77;21070;-43
2021/12/02 08:41:59;;;;;;;2.98;1.15;;;9.30;72.20;;;;;;1871760;76;21062;-41
2021/12/02 08:44:31;;;;;;;2.70;1.45;;;9.30;72.40;;;;;;1882157;75;21114;-43
2021/12/02 08:47:00;;;;;;;4.25;1.75;;;9.30;73.40;;;;;;1871697;77;21035;-42
2021/12/02 08:49:29;;;;;;;5.92;1.80;;;9.20;74.20;;;;;;1871759;75;21082;-42
2021/12/02 08:51:58;;;;;;;2.47;1.72;;;9.10;74.50;;;;;;1877128;76;21114;-43
2021/12/02 08:54:28;;;;;;;1.32;1.17;;;9.10;75.00;;;;;;1902007;74;21054;-40
2021/12/02 08:56:57;;;;;;;2.27;1.30;;;9.10;76.30;;;;;;1923848;74;20994;-41
2021/12/02 08:59:27;;;;;;;3.05;1.37;;;9.00;75.30;;;;;;1923730;74;21109;-41
2021/12/02 09:01:56;;;;;;;3.85;2.20;;;9.10;75.50;;;;;;1923791;74;21088;-41
2021/12/02 09:04:26;;;;;;;2.47;1.75;;;9.10;75.70;;;;;;1923772;74;21069;-41
2021/12/02 09:06:55;;;;;;;5.60;1.65;;;9.20;75.80;;;;;;1923615;74;21059;-42
2021/12/02 09:09:26;;;;;;;4.53;2.05;;;9.30;75.90;;;;;;1923683;74;21024;-43
2021/12/02 09:11:57;;;;;;;3.98;1.80;;;9.30;75.80;;;;;;1923804;74;21621;-40
2021/12/02 09:14:26;;;;;;;1.77;1.50;;;9.40;75.80;;;;;;1919814;74;21034;-43
2021/12/02 09:16:55;;;;;;;1.47;1.27;;;9.50;75.80;;;;;;1890507;76;21139;-41
2021/12/02 09:19:25;;;;;;;3.45;1.90;;;9.50;75.60;;;;;;1890599;76;21021;-42
2021/12/02 09:21:54;;;;;;;3.85;1.20;;;9.50;75.50;;;;;;1890566;76;21105;-41
2021/12/02 09:24:23;;;;;;;3.15;1.35;;;9.60;75.20;;;;;;1890442;76;21086;-41
2021/12/02 09:26:56;;;;;;;2.67;1.57;;;9.60;75.20;;;;;;1890562;76;21049;-42
2021/12/02 09:29:26;;;;;;;2.25;1.40;;;9.60;75.40;;;;;;1909006;74;21137;-43
2021/12/02 09:31:57;;;;;;;1.42;1.10;;;9.80;75.10;;;;;;1908806;74;21129;-42
2021/12/02 09:34:26;;;;;;;6.28;1.25;;;9.80;74.40;;;;;;1902881;74;21128;-43
2021/12/02 09:36:56;;;;;;;5.47;1.52;;;9.90;74.00;;;;;;1904788;74;21089;-44
2021/12/02 09:39:35;;;;;;;2.45;1.65;;;9.90;74.10;;;;;;1918059;74;21057;-40
2021/12/02 09:41:56;;;;;;;3.58;1.60;;;9.90;74.40;;;;;;1923499;74;21092;-42
2021/12/02 09:44:26;;;;;;;4.10;2.45;;;9.90;74.50;;;;;;1923615;74;21082;-40
2021/12/02 09:46:55;;;;;;;3.52;1.50;;;9.90;74.80;;;;;;1898145;74;21169;-42
2021/12/02 09:49:25;;;;;;;2.35;1.50;;;9.80;74.70;;;;;;1899487;74;21458;-43
2021/12/02 09:54:29;;;;;;;2.60;1.02;;;9.80;74.20;;;;;;1896239;75;21044;-41
2021/12/02 10:10:56;;;;;;;2.17;1.20;;;9.70;71.70;;;;;;1943798;73;22109;-44
2021/12/02 10:21:45;;;;;;;4.97;1.85;;;10.20;72.00;;;;;;1915380;75;21022;-42
2021/12/02 10:24:19;;;;;;;5.58;1.82;;;10.30;72.10;;;;;;1912595;75;20995;-41
2021/12/02 10:26:51;;;;;;;5.25;1.22;;;10.40;72.10;;;;;;1917207;74;21097;-42
2021/12/02 10:29:23;;;;;;;4.00;1.40;;;10.40;70.30;;;;;;1917210;75;21500;-46
2021/12/02 10:32:16;;;;;;;1.20;1.10;;;10.40;70.50;;;;;;1914813;74;22172;-44
2021/12/02 10:35:06;;;;;;;2.10;1.27;;;10.50;71.60;;;;;;1915423;74;21027;-42
2021/12/02 10:37:33;;;;;;;2.98;1.10;;;10.50;69.40;;;;;;1912021;74;21146;-43
2021/12/02 10:40:05;;;;;;;3.87;1.20;;;10.50;69.20;;;;;;1913696;75;21059;-40
2021/12/02 10:42:45;;;;;;;5.35;1.40;;;10.50;68.00;;;;;;1913578;75;21071;-42
2021/12/02 10:45:22;;;;;;;5.25;1.35;;;10.40;68.30;;;;;;1910935;75;21750;-41
2021/12/02 10:47:53;;;;;;;3.02;1.20;;;10.40;68.70;;;;;;1896005;75;21529;-43
2021/12/02 10:50:24;;;;;;;2.98;1.37;;;10.40;68.60;;;;;;1856252;77;22137;-41
2021/12/02 10:52:53;;;;;;;2.67;1.20;;;10.40;69.00;;;;;;1856340;77;21143;-41
2021/12/02 10:55:28;;;;;;;3.52;1.40;;;10.50;69.20;;;;;;1856294;76;21097;-42
2021/12/02 10:57:57;;;;;;;3.58;1.87;;;10.50;69.10;;;;;;1919631;74;21525;-41
2021/12/02 11:00:31;;;;;;;3.37;1.02;;;10.50;69.40;;;;;;1923954;74;20986;-40
2021/12/02 11:03:03;;;;;;;5.45;1.12;;;10.50;68.60;;;;;;1922822;74;21061;-40
2021/12/02 11:05:33;;;;;;;2.62;1.67;;;10.50;66.70;;;;;;1922553;74;21033;-42
2021/12/02 11:08:07;;;;;;;3.20;1.20;;;10.40;67.80;;;;;;1924120;73;21067;-41
2021/12/02 11:10:42;;;;;;;2.00;1.25;;;10.40;68.60;;;;;;1918345;74;21050;-41
2021/12/02 11:13:13;;;;;;;2.30;0.90;;;10.40;67.10;;;;;;1914902;75;21482;-40
2021/12/02 11:15:42;;;;;;;1.72;1.00;;;10.40;66.40;;;;;;1914192;74;21559;-42
2021/12/02 11:18:16;;;;;;;1.65;1.07;;;10.40;67.00;;;;;;1914891;74;21045;-43
2021/12/02 11:20:50;;;;;;;6.35;2.52;;;10.30;67.20;;;;;;1914374;75;21069;-43
2021/12/02 11:23:28;;;;;;;5.47;1.72;;;10.30;66.50;;;;;;1914128;75;21088;-43
2021/12/02 11:26:10;;;;;;;2.58;1.12;;;10.30;67.00;;;;;;1913350;75;20994;-43
2021/12/02 11:28:38;;;;;;;;;;;10.20;67.20;;;;;;1916615;75;21085;-44
2021/12/02 11:31:16;;;;;;;5.53;1.60;;;10.20;67.00;;;;;;1914073;75;20147;-42
2021/12/02 11:33:47;;;;;;;3.00;1.80;;;10.20;67.90;;;;;;1914196;75;20994;-43
2021/12/02 11:36:25;;;;;;;1.57;0.95;;;10.20;68.50;;;;;;1914217;74;21022;-43
2021/12/02 11:38:58;;;;;;;5.10;1.25;;;10.10;68.70;;;;;;1914047;75;21061;-42
2021/12/02 11:41:28;;;;;;;3.75;1.80;;;10.20;69.40;;;;;;1914214;75;21006;-44
2021/12/02 11:43:57;;;;;;;1.35;1.12;;;10.20;69.20;;;;;;1914005;75;20986;-42
